Airfield :







YOU CAN JOIN US ON...

 
LOGIN :

Register | Disclaimer

   EN    FR    IT 

 









Legend :    VFR   Marginal VFR   IFR   Intensive IFR   Very Intensive IFR
Visi :
Ceiling :
>= 8 km
>= 3000ft
5 to 8 km
1000 to 3000 ft
1500m to 5 km
500 to 1000 ft
800 to 1500m
200 to 500 ft
< 800m
< 200 ft
Symbols :   Thunderstorms  Fog  Heavy snow  Heavy precipitations  Wind > 20 kt







- Airport Elevation : 603 ft
- IATA code : LEB


KLEB - Lebanon Municipal

CURRENT METAR :
  • 250953Z AUTO 00000KT 10SM BKN075 14/11 A2989 RMK AO2 SLP113 T01390111

EXPIRED METARs :
  • 250853Z AUTO 14003KT 10SM BKN075 13/11 A2988 RMK AO2 SLP110 T01280106 53002
  • 250753Z AUTO 00000KT 10SM CLR 13/11 A2987 RMK AO2 SLP108 T01280106

TAF KLEB
Valid from the 25 at 09:00 until the 26 at 06:00 UTC


250850Z 2509/2606 00000KT P6SM FEW080
FM251500 VRB02KT P6SM OVC020
FM251700 VRB02KT 3SM -SHRA OVC010
PROB30 2518/2520 TSRA OVC010CB
FM252100 16004KT 3SM -SHRA OVC007
KZBW FIR / North America



MET'MAP, your aeronautical weather chart ! - Copyright ORBIFLY December 2007 - Disclaimer

ORBIFLY MET'MAP TEAM :

Programming & Development : Alexandra Zaïnal
Concept & Development : Baudouin d'Aumeries
Co-Development & Prog : Marc-Olivier Méhu
Technical & hardware support : Manuel Goepfert

Contact : metmap@orbifly.com




SOURCES & CREDITS :

   NOAA